• Join FlightAware (Why Join?)
  • Login
  • US Flag 
04:44PM EDT


 

Airport Tracker/Info


-or-


 

Live Flight TrackerFlight Track Log ✈ SKW5631 ✈ 17-Jun-2013 ✈ KSFO - KBUR

Flight Track Log - Related Links

Times and Time Zones

All times are in EDT time to prevent confusion due to time zone crossing. See the SKW5631 flight status page for this flight to view local times or setup timezone preferences in your user account.

Time Position Orientation Groundspeed Altitude Reporting Facility
EDT Latitude Longitude Course Direction KTS MPH feet Rate Location/Type
10:45PM 37.3473 -122.0367 135° Southeast  Level Estimated
10:46PM 37.2565 -121.9243 135° Southeast  Level Estimated
10:47PM 37.1656 -121.8123 135° Southeast  Level Estimated
10:48PM 37.0746 -121.7005 136° Southeast  Level Estimated
10:49PM 36.9835 -121.5890 136° Southeast  Level Estimated
10:50PM 36.8923 -121.4778 136° Southeast  Level Estimated
10:51PM 36.8010 -121.3668 136° Southeast  Level Estimated
10:52PM 36.7095 -121.2561 136° Southeast  Level Estimated
10:53PM 36.6180 -121.1457 136° Southeast  Level Estimated
10:54PM 36.5264 -121.0355 136° Southeast  Level Estimated
10:55PM 36.4346 -120.9256 136° Southeast  Level Estimated
10:56PM 36.3428 -120.8159 136° Southeast  Level Estimated
10:57PM 36.2509 -120.7065 136° Southeast  Level Estimated
10:58PM 36.1589 -120.5973 136° Southeast  Level Estimated
10:59PM 36.0667 -120.4884 136° Southeast  Level Estimated
11:00PM 35.9745 -120.3798 136° Southeast  Level Estimated
11:01PM 35.8822 -120.2714 136° Southeast  Level Estimated
11:02PM 35.7897 -120.1633 136° Southeast  Level Estimated
11:03PM 35.6972 -120.0554 137° Southeast  Level Estimated
11:04PM 35.6046 -119.9478 137° Southeast  Level Estimated
11:05PM 35.5119 -119.8404 137° Southeast  Level Estimated
11:06PM 35.4191 -119.7333 137° Southeast  Level Estimated
11:07PM 35.3262 -119.6264 137° Southeast  Level Estimated
11:08PM 35.2332 -119.5197 137° Southeast  Level Estimated
11:09PM 35.1401 -119.4133 137° Southeast  Level Estimated
11:10PM 35.0469 -119.3072 137° Southeast  Level Estimated
11:11PM 34.9537 -119.2013 137° Southeast  Level Estimated
11:12PM 34.8603 -119.0956 137° Southeast  Level Estimated
11:13PM 34.7668 -118.9902 137° Southeast  Level Estimated
11:14PM 34.6733 -118.8850 137° Southeast  Level Estimated
11:15PM 34.5796 -118.7800 137° Southeast  Level Estimated
11:16PM 34.4859 -118.6753 137° Southeast  Level Estimated
11:17PM 34.3921 -118.5708 137° Southeast  Level Estimated
11:18PM 34.2982 -118.4666 137° Southeast  Level Estimated
11:19PM 34.2042 -118.3626 138° Southeast  Level Estimated
11:20PM 34.2007 -118.3587 138° Southeast  Level Estimated
11:21PM 34.2007 -118.3587 140° Southeast  Level Estimated
11:22PM 34.2007 -118.3587 140° Southeast  Level Estimated
11:23PM 34.2007 -118.3587 140° Southeast  Level Estimated
11:24PM 34.2007 -118.3587 140° Southeast  Level Estimated
11:25PM 34.2007 -118.3587 140° Southeast  Level Estimated
11:26PM 34.2007 -118.3587 140° Southeast  Level Estimated
11:27PM 34.2007 -118.3587 140° Southeast  Level Estimated
11:28PM 34.2007 -118.3587 140° Southeast  Level Estimated
11:29PM 34.2007 -118.3587 140° Southeast  Level Estimated
11:30PM 34.2007 -118.3587 140° Southeast  Level Estimated
11:31PM 34.2007 -118.3587 140° Southeast  Level Estimated
11:32PM 34.2007 -118.3587 140° Southeast  Level Estimated